Time;durP1;ratioP1;P1;durP2;ratioP2;P2;SDS_P1;SDS_P2;PMS_P1;PMS_P2;Temp;Humidity;BMP_temperature;BMP_pressure;BME280_temperature;BME280_humidity;BME280_pressure;Samples;Min_cycle;Max_cycle;Signal;HPM_P1;HPM_P2
2023/07/28 00:00:24;;;;;;;1.20;1.10;;;17.40;99.90;;;;;;5095171;28;20253;-42
2023/07/28 00:02:50;;;;;;;1.97;1.07;;;17.40;99.90;;;;;;5094483;28;20278;-42
2023/07/28 00:05:15;;;;;;;1.87;1.10;;;17.30;99.90;;;;;;5094653;28;20183;-40
2023/07/28 00:07:41;;;;;;;2.20;1.00;;;17.30;99.90;;;;;;5094613;28;20187;-42
2023/07/28 00:10:07;;;;;;;2.20;0.90;;;17.30;99.90;;;;;;5094808;28;20194;-43
2023/07/28 00:12:32;;;;;;;3.37;1.00;;;17.30;99.90;;;;;;5094458;28;20213;-42
2023/07/28 00:14:59;;;;;;;3.10;1.20;;;17.40;99.90;;;;;;5094235;28;20686;-42
2023/07/28 00:17:25;;;;;;;1.67;1.00;;;17.40;99.90;;;;;;5094335;28;20179;-43
2023/07/28 00:19:51;;;;;;;1.60;1.17;;;17.40;99.90;;;;;;5094275;28;20194;-41
2023/07/28 00:22:17;;;;;;;3.00;0.90;;;17.40;99.90;;;;;;5094556;28;20182;-43
2023/07/28 00:24:42;;;;;;;2.90;1.00;;;17.40;99.90;;;;;;5094512;28;20222;-42
2023/07/28 00:27:08;;;;;;;0.90;0.70;;;17.30;99.90;;;;;;5094235;28;20218;-43
2023/07/28 00:29:33;;;;;;;7.37;1.17;;;17.30;99.90;;;;;;5094281;28;20190;-41
2023/07/28 00:31:59;;;;;;;1.40;1.10;;;17.40;99.90;;;;;;5094079;28;20225;-43
2023/07/28 00:34:24;;;;;;;1.00;0.90;;;17.40;99.90;;;;;;5094312;28;20210;-40
2023/07/28 00:36:50;;;;;;;3.90;0.93;;;17.40;99.90;;;;;;5094024;28;20654;-42
2023/07/28 00:39:15;;;;;;;2.10;1.10;;;17.40;99.90;;;;;;5094230;28;20198;-43
2023/07/28 00:41:41;;;;;;;1.50;1.10;;;17.40;99.90;;;;;;5094102;28;20561;-42
2023/07/28 00:44:07;;;;;;;1.93;1.00;;;17.40;99.90;;;;;;5093877;28;20187;-41
2023/07/28 00:46:32;;;;;;;6.23;1.10;;;17.40;99.90;;;;;;5094077;28;20658;-42
2023/07/28 00:48:58;;;;;;;1.73;1.20;;;17.40;99.90;;;;;;5076293;28;20194;-42
2023/07/28 00:51:24;;;;;;;3.10;1.13;;;17.40;99.90;;;;;;5094114;28;20179;-42
2023/07/28 00:53:52;;;;;;;1.63;1.10;;;17.40;99.90;;;;;;5093913;28;20237;-40
2023/07/28 00:56:18;;;;;;;1.37;1.27;;;17.40;99.90;;;;;;5093976;28;20215;-42
2023/07/28 00:58:44;;;;;;;3.20;1.33;;;17.40;99.90;;;;;;5093757;28;20265;-41
2023/07/28 01:01:10;;;;;;;3.37;1.20;;;17.40;99.90;;;;;;5093749;28;20677;-41
2023/07/28 01:03:35;;;;;;;6.80;0.97;;;17.40;99.90;;;;;;5093974;28;20171;-44
2023/07/28 01:06:29;;;;;;;1.47;0.90;;;17.40;99.90;;;;;;5093619;28;20205;-41
2023/07/28 01:09:13;;;;;;;8.43;1.50;;;17.40;99.90;;;;;;5093920;28;20181;-41
2023/07/28 01:11:53;;;;;;;5.73;1.60;;;17.40;99.90;;;;;;5093874;28;20542;-42
2023/07/28 01:14:18;;;;;;;1.67;1.27;;;17.40;99.90;;;;;;5093910;28;20618;-43
2023/07/28 01:16:44;;;;;;;6.27;1.30;;;17.40;99.90;;;;;;5093628;28;20229;-41
2023/07/28 01:19:11;;;;;;;3.13;1.47;;;17.40;99.90;;;;;;5093759;28;20624;-42
2023/07/28 01:21:39;;;;;;;1.60;1.30;;;17.40;99.90;;;;;;5094427;28;20218;-43
2023/07/28 01:24:26;;;;;;;2.17;1.30;;;17.40;99.90;;;;;;5092255;28;20669;-44
2023/07/28 01:26:51;;;;;;;6.13;1.70;;;17.40;99.90;;;;;;5095050;28;20666;-41
2023/07/28 01:29:19;;;;;;;5.00;1.40;;;17.40;99.90;;;;;;5094202;28;20213;-44
2023/07/28 01:31:47;;;;;;;3.80;1.43;;;17.40;99.90;;;;;;5093739;28;20225;-47
2023/07/28 01:34:13;;;;;;;1.73;1.60;;;17.30;99.90;;;;;;5093567;28;20298;-48
2023/07/28 01:36:39;;;;;;;2.97;1.50;;;17.30;99.90;;;;;;5093582;28;20580;-47
2023/07/28 01:39:04;;;;;;;2.10;1.37;;;17.30;99.90;;;;;;5075135;28;20273;-48
2023/07/28 01:41:30;;;;;;;3.90;1.67;;;17.40;99.90;;;;;;5093243;28;20178;-47
2023/07/28 01:43:56;;;;;;;4.93;2.17;;;17.40;99.90;;;;;;5093328;28;20183;-46
2023/07/28 01:46:22;;;;;;;2.43;1.83;;;17.30;99.90;;;;;;5093549;28;20199;-47
2023/07/28 01:48:48;;;;;;;5.00;2.00;;;17.40;99.90;;;;;;5093230;28;20191;-46
2023/07/28 01:51:14;;;;;;;2.93;1.90;;;17.40;99.90;;;;;;5093276;28;20233;-46
2023/07/28 01:53:39;;;;;;;2.50;1.87;;;17.40;99.90;;;;;;5096801;28;20218;-48
2023/07/28 01:56:05;;;;;;;3.73;1.80;;;17.40;99.90;;;;;;5097246;28;20205;-48
2023/07/28 01:58:30;;;;;;;4.40;1.80;;;17.40;99.90;;;;;;5097040;28;20187;-46
2023/07/28 02:00:56;;;;;;;4.27;1.50;;;17.40;99.90;;;;;;5096984;28;20186;-48
2023/07/28 02:03:22;;;;;;;3.80;1.57;;;17.40;99.90;;;;;;5096917;28;20236;-48
2023/07/28 02:05:48;;;;;;;2.37;1.67;;;17.40;99.90;;;;;;5097009;28;20578;-47
2023/07/28 02:08:14;;;;;;;2.80;2.17;;;17.40;99.90;;;;;;5097417;28;20634;-47
2023/07/28 02:10:40;;;;;;;6.73;2.30;;;17.40;99.90;;;;;;5096751;28;20194;-50
2023/07/28 02:13:05;;;;;;;5.43;1.93;;;17.40;99.90;;;;;;5097024;28;20179;-48
2023/07/28 02:15:31;;;;;;;1.77;1.63;;;17.40;99.90;;;;;;5096815;28;20289;-46
2023/07/28 02:17:56;;;;;;;3.03;1.90;;;17.40;99.90;;;;;;5078497;28;20182;-46
2023/07/28 02:20:22;;;;;;;2.73;1.70;;;17.40;99.90;;;;;;5096791;28;20253;-48
2023/07/28 02:22:48;;;;;;;1.90;1.70;;;17.40;99.90;;;;;;5096649;28;20187;-48
2023/07/28 02:25:14;;;;;;;2.53;1.80;;;17.40;99.90;;;;;;5096496;28;20183;-47
2023/07/28 02:27:39;;;;;;;3.40;2.00;;;17.40;99.90;;;;;;5078569;28;20780;-48
2023/07/28 02:30:06;;;;;;;6.00;1.60;;;17.40;99.90;;;;;;5096281;28;20249;-47
2023/07/28 02:32:32;;;;;;;2.53;1.90;;;17.40;99.90;;;;;;5097146;28;20270;-46
2023/07/28 02:34:58;;;;;;;1.87;1.27;;;17.40;99.90;;;;;;5096477;28;20219;-47
2023/07/28 02:37:25;;;;;;;3.27;1.73;;;17.40;99.90;;;;;;5078482;28;20191;-48
2023/07/28 02:39:50;;;;;;;2.40;1.50;;;17.40;99.90;;;;;;5096312;28;20175;-47
2023/07/28 02:42:16;;;;;;;6.10;1.50;;;17.40;99.90;;;;;;5096167;28;20187;-47
2023/07/28 02:44:42;;;;;;;3.90;1.20;;;17.40;99.90;;;;;;5096389;28;20191;-46
2023/07/28 02:47:08;;;;;;;5.10;1.50;;;17.40;99.90;;;;;;5077932;28;20242;-46
2023/07/28 02:49:33;;;;;;;8.13;1.70;;;17.40;99.90;;;;;;5078143;28;20662;-47
2023/07/28 02:51:59;;;;;;;2.83;1.27;;;17.40;99.90;;;;;;5096000;28;20186;-47
2023/07/28 02:54:25;;;;;;;1.83;1.23;;;17.40;99.90;;;;;;5095804;28;20215;-48
2023/07/28 02:56:51;;;;;;;6.00;1.53;;;17.40;99.90;;;;;;5077736;28;20199;-48
2023/07/28 02:59:17;;;;;;;1.67;1.10;;;17.50;99.90;;;;;;5096073;28;20612;-47
2023/07/28 03:01:43;;;;;;;2.27;1.50;;;17.40;99.90;;;;;;5077630;28;20658;-47
2023/07/28 03:04:08;;;;;;;3.80;1.20;;;17.40;99.90;;;;;;5076535;28;20219;-46
2023/07/28 03:06:34;;;;;;;3.50;1.10;;;17.40;99.90;;;;;;5095658;28;20215;-46
2023/07/28 03:09:00;;;;;;;2.77;1.07;;;17.50;99.90;;;;;;5077558;28;20201;-47
2023/07/28 03:11:25;;;;;;;4.73;1.00;;;17.50;99.90;;;;;;5095746;28;20179;-47
2023/07/28 03:13:51;;;;;;;2.77;1.10;;;17.50;99.90;;;;;;5095756;28;20207;-46
2023/07/28 03:16:17;;;;;;;4.20;0.90;;;17.50;99.90;;;;;;5095845;28;20202;-46
2023/07/28 03:18:42;;;;;;;1.30;0.97;;;17.50;99.90;;;;;;5095499;28;20223;-49
2023/07/28 03:21:11;;;;;;;2.03;0.90;;;17.50;99.90;;;;;;5095792;28;20224;-47
2023/07/28 03:23:37;;;;;;;2.57;1.10;;;17.50;99.90;;;;;;5095729;28;20175;-47
2023/07/28 03:26:02;;;;;;;1.77;1.00;;;17.50;99.90;;;;;;5077185;28;20297;-46
2023/07/28 03:28:28;;;;;;;2.30;1.10;;;17.50;99.90;;;;;;5095646;28;20230;-48
2023/07/28 03:30:54;;;;;;;1.17;0.90;;;17.50;99.90;;;;;;5095166;28;20183;-47
2023/07/28 03:33:19;;;;;;;1.93;1.00;;;17.50;99.90;;;;;;5095422;28;20236;-47
2023/07/28 03:35:45;;;;;;;2.50;1.20;;;17.50;99.90;;;;;;5095408;28;20272;-48
2023/07/28 03:38:11;;;;;;;5.57;1.50;;;17.50;99.90;;;;;;5076968;28;20612;-47
2023/07/28 03:40:36;;;;;;;2.97;1.10;;;17.50;99.90;;;;;;5095256;28;20183;-48
2023/07/28 03:43:03;;;;;;;3.03;1.07;;;17.50;99.90;;;;;;5094951;28;20182;-49
2023/07/28 03:45:28;;;;;;;3.00;0.93;;;17.50;99.90;;;;;;5094899;28;20206;-48
2023/07/28 03:47:54;;;;;;;1.77;0.93;;;17.50;99.90;;;;;;5095967;28;20186;-47
2023/07/28 03:50:20;;;;;;;2.43;0.90;;;17.50;99.90;;;;;;5094885;28;20197;-47
2023/07/28 03:52:45;;;;;;;1.10;1.00;;;17.50;99.90;;;;;;5094820;28;20263;-46
2023/07/28 03:55:11;;;;;;;1.33;1.13;;;17.50;99.90;;;;;;5094560;28;20211;-48
2023/07/28 03:57:37;;;;;;;1.73;1.00;;;17.50;99.90;;;;;;5094796;28;20183;-46
2023/07/28 04:00:03;;;;;;;2.23;1.20;;;17.50;99.90;;;;;;5076514;28;20214;-47
2023/07/28 04:02:29;;;;;;;1.50;1.17;;;17.50;99.90;;;;;;5094825;28;20186;-47
2023/07/28 04:04:55;;;;;;;3.27;1.10;;;17.50;99.90;;;;;;5094774;28;20172;-47
2023/07/28 04:07:21;;;;;;;1.73;0.90;;;17.50;99.90;;;;;;5094394;28;20205;-47
2023/07/28 04:09:47;;;;;;;2.70;1.30;;;17.50;99.90;;;;;;5094731;28;20564;-48
2023/07/28 04:12:12;;;;;;;1.67;1.10;;;17.50;99.90;;;;;;5094392;28;20290;-48
2023/07/28 04:14:38;;;;;;;1.13;1.03;;;17.50;99.90;;;;;;5094260;28;20221;-47
2023/07/28 04:17:04;;;;;;;3.13;1.30;;;17.50;99.90;;;;;;5094587;28;20272;-47
2023/07/28 04:19:30;;;;;;;3.30;1.30;;;17.50;99.90;;;;;;5076154;28;20182;-48
2023/07/28 04:21:56;;;;;;;1.23;1.10;;;17.50;99.90;;;;;;5094151;28;20175;-47
2023/07/28 04:24:22;;;;;;;1.43;1.20;;;17.50;99.90;;;;;;5094466;28;20198;-46
2023/07/28 04:26:48;;;;;;;3.70;1.40;;;17.50;99.90;;;;;;5094080;28;20697;-48
2023/07/28 04:29:14;;;;;;;2.20;0.97;;;17.50;99.90;;;;;;5093987;28;20198;-49
2023/07/28 04:31:40;;;;;;;3.53;1.00;;;17.50;99.90;;;;;;5109975;28;20194;-48
2023/07/28 04:34:06;;;;;;;1.43;1.13;;;17.50;99.90;;;;;;5094098;28;20211;-47
2023/07/28 04:36:31;;;;;;;3.07;1.23;;;17.50;99.90;;;;;;5093942;28;20209;-47
2023/07/28 04:38:57;;;;;;;1.80;1.03;;;17.60;99.90;;;;;;5093950;28;20186;-47
2023/07/28 04:41:22;;;;;;;2.17;1.07;;;17.60;99.90;;;;;;5094101;28;20191;-47
2023/07/28 04:43:48;;;;;;;1.67;0.90;;;17.60;99.90;;;;;;5094539;28;20286;-47
2023/07/28 04:46:13;;;;;;;1.33;1.10;;;17.60;99.90;;;;;;5075714;28;20211;-47
2023/07/28 04:48:39;;;;;;;3.07;1.00;;;17.60;99.90;;;;;;5093813;28;20182;-47
2023/07/28 04:51:05;;;;;;;2.53;0.87;;;17.60;99.90;;;;;;5093814;28;20190;-47
2023/07/28 04:53:31;;;;;;;4.23;0.90;;;17.60;99.90;;;;;;5093673;28;20183;-47
2023/07/28 04:55:56;;;;;;;0.80;0.80;;;17.60;99.90;;;;;;5093735;28;20203;-48
2023/07/28 04:58:22;;;;;;;3.33;1.00;;;17.70;99.90;;;;;;5094020;28;20236;-49
2023/07/28 05:00:47;;;;;;;2.43;1.23;;;17.60;99.90;;;;;;5093815;28;20190;-48
2023/07/28 05:03:13;;;;;;;1.20;1.10;;;17.70;99.90;;;;;;5094218;28;20171;-47
2023/07/28 05:05:39;;;;;;;2.30;0.97;;;17.70;99.90;;;;;;5094315;28;20221;-47
2023/07/28 05:08:04;;;;;;;3.27;1.03;;;17.70;99.90;;;;;;5076324;28;20278;-46
2023/07/28 05:10:30;;;;;;;3.23;0.90;;;17.70;99.90;;;;;;5093824;28;20183;-46
2023/07/28 05:12:55;;;;;;;2.20;1.37;;;17.70;99.90;;;;;;5095258;28;20187;-46
2023/07/28 05:15:23;;;;;;;3.57;1.20;;;17.70;99.90;;;;;;5093635;28;20206;-47
2023/07/28 05:17:49;;;;;;;3.63;1.00;;;17.70;99.90;;;;;;5094839;28;20179;-46
2023/07/28 05:20:16;;;;;;;2.83;1.20;;;17.70;99.90;;;;;;5093767;28;20197;-46
2023/07/28 05:22:41;;;;;;;5.00;1.40;;;17.70;99.90;;;;;;5109072;28;20186;-46
2023/07/28 05:25:07;;;;;;;2.87;1.30;;;17.70;99.90;;;;;;5093580;28;20551;-47
2023/07/28 05:27:33;;;;;;;5.83;1.63;;;17.80;99.90;;;;;;5095347;28;20738;-48
2023/07/28 05:29:59;;;;;;;2.23;1.80;;;17.80;99.90;;;;;;5094307;28;20301;-47
2023/07/28 05:32:24;;;;;;;2.73;1.77;;;17.70;99.90;;;;;;5098571;28;20193;-46
2023/07/28 05:34:50;;;;;;;1.90;1.70;;;17.80;99.90;;;;;;5097560;28;20222;-48
2023/07/28 05:37:16;;;;;;;1.83;1.73;;;17.80;99.90;;;;;;5097392;28;20210;-46
2023/07/28 05:39:42;;;;;;;3.53;2.23;;;17.80;99.90;;;;;;5097684;28;20198;-47
2023/07/28 05:42:08;;;;;;;2.40;2.10;;;17.80;99.90;;;;;;5097383;28;20269;-47
2023/07/28 05:44:34;;;;;;;3.87;2.17;;;17.80;99.90;;;;;;5097582;28;20270;-46
2023/07/28 05:46:59;;;;;;;4.13;2.20;;;17.80;99.90;;;;;;5097299;28;20306;-46
2023/07/28 05:49:25;;;;;;;5.67;2.30;;;17.80;99.90;;;;;;5097619;28;20226;-47
2023/07/28 05:51:50;;;;;;;4.07;2.23;;;17.80;99.90;;;;;;5097213;28;20214;-48
2023/07/28 05:54:16;;;;;;;4.33;2.33;;;17.80;99.90;;;;;;5097413;28;20751;-46
2023/07/28 05:56:42;;;;;;;2.73;2.50;;;17.80;99.90;;;;;;5095905;28;20213;-45
2023/07/28 05:59:08;;;;;;;2.70;2.50;;;17.80;99.90;;;;;;5096990;28;20183;-47
2023/07/28 06:01:34;;;;;;;3.13;2.83;;;17.90;99.90;;;;;;5095730;28;20530;-46
2023/07/28 06:03:59;;;;;;;4.30;2.80;;;17.80;99.90;;;;;;5097526;28;20178;-46
2023/07/28 06:06:28;;;;;;;4.60;2.90;;;17.80;99.90;;;;;;5097080;28;20215;-47
2023/07/28 06:08:54;;;;;;;4.57;2.63;;;17.90;99.90;;;;;;5096836;28;20183;-46
2023/07/28 06:11:20;;;;;;;3.07;2.80;;;17.90;99.90;;;;;;5096813;28;20183;-47
2023/07/28 06:13:46;;;;;;;3.47;2.60;;;17.90;99.90;;;;;;5096677;28;20329;-46
2023/07/28 06:16:16;;;;;;;3.57;2.77;;;17.90;99.90;;;;;;5096663;28;20286;-47
2023/07/28 06:18:41;;;;;;;4.20;2.70;;;17.90;99.90;;;;;;5096641;28;20179;-47
2023/07/28 06:21:07;;;;;;;4.60;2.63;;;18.00;99.90;;;;;;5096840;28;20191;-47
2023/07/28 06:23:33;;;;;;;4.10;2.50;;;18.00;99.90;;;;;;5096811;28;20194;-48
2023/07/28 06:25:59;;;;;;;3.97;2.67;;;17.90;99.90;;;;;;5096517;28;20661;-47
2023/07/28 06:28:24;;;;;;;3.67;2.93;;;18.00;99.90;;;;;;5096337;28;20281;-47
2023/07/28 06:30:55;;;;;;;3.40;2.80;;;18.00;99.90;;;;;;5078181;28;20590;-46
2023/07/28 06:33:21;;;;;;;6.67;2.90;;;18.00;99.90;;;;;;5096729;28;20657;-47
2023/07/28 06:35:46;;;;;;;7.33;2.80;;;18.10;99.90;;;;;;5096379;28;20242;-47
2023/07/28 06:38:12;;;;;;;4.60;2.63;;;18.10;99.90;;;;;;5096622;28;20175;-45
2023/07/28 06:40:38;;;;;;;6.13;3.23;;;18.00;99.90;;;;;;5096490;28;20583;-48
2023/07/28 06:43:04;;;;;;;3.47;2.40;;;18.10;99.90;;;;;;5096204;28;20232;-47
2023/07/28 06:45:29;;;;;;;7.33;2.80;;;18.10;99.90;;;;;;5096090;28;20202;-46
2023/07/28 06:47:55;;;;;;;7.03;2.70;;;18.10;99.90;;;;;;5096419;28;20700;-46
2023/07/28 06:50:20;;;;;;;9.20;3.00;;;18.10;99.90;;;;;;5096771;28;20179;-46
2023/07/28 06:52:47;;;;;;;5.90;2.57;;;18.10;99.90;;;;;;5096448;28;20197;-46
2023/07/28 06:55:16;;;;;;;2.87;2.13;;;18.20;99.90;;;;;;5111548;28;20211;-46
2023/07/28 06:57:42;;;;;;;9.33;3.00;;;18.20;99.90;;;;;;5096177;28;20271;-47
2023/07/28 07:00:11;;;;;;;6.27;2.40;;;18.20;99.90;;;;;;5096262;28;20278;-48
2023/07/28 07:02:37;;;;;;;3.67;2.13;;;18.20;99.90;;;;;;5096369;28;20175;-48
2023/07/28 07:05:03;;;;;;;10.67;2.20;;;18.30;99.90;;;;;;5095687;28;20273;-48
2023/07/28 07:07:30;;;;;;;4.87;2.20;;;18.30;99.90;;;;;;5095976;28;20198;-47
2023/07/28 07:09:55;;;;;;;3.93;2.50;;;18.30;99.90;;;;;;5111520;28;20223;-47
2023/07/28 07:12:21;;;;;;;8.63;2.47;;;18.40;99.90;;;;;;5095680;28;20226;-46
2023/07/28 07:14:47;;;;;;;4.80;2.50;;;18.40;99.90;;;;;;5095526;28;20204;-47
2023/07/28 07:17:13;;;;;;;3.80;2.80;;;18.40;99.90;;;;;;5077366;28;20332;-48
2023/07/28 07:19:39;;;;;;;4.53;2.40;;;18.40;99.90;;;;;;5095745;28;20183;-48
2023/07/28 07:22:05;;;;;;;4.13;2.50;;;18.50;99.90;;;;;;5079476;28;20194;-47
2023/07/28 07:24:31;;;;;;;3.90;2.97;;;18.50;99.90;;;;;;5095372;28;20220;-46
2023/07/28 07:26:56;;;;;;;5.73;2.50;;;18.50;99.90;;;;;;5095517;28;20289;-46
2023/07/28 07:29:22;;;;;;;5.67;3.00;;;18.50;99.90;;;;;;5095229;28;20238;-47
2023/07/28 07:31:48;;;;;;;4.90;2.23;;;18.50;99.90;;;;;;5095319;28;20178;-46
2023/07/28 07:34:14;;;;;;;2.97;2.17;;;18.50;99.90;;;;;;5095560;28;20754;-47
2023/07/28 07:36:39;;;;;;;3.40;2.60;;;18.60;99.90;;;;;;5094951;28;20238;-47
2023/07/28 07:39:06;;;;;;;4.40;2.60;;;18.60;99.90;;;;;;5095193;28;20183;-47
2023/07/28 07:41:31;;;;;;;4.67;2.37;;;18.60;99.90;;;;;;5111067;28;20183;-48
2023/07/28 07:43:57;;;;;;;7.40;2.40;;;18.60;99.90;;;;;;5095258;28;20236;-47
2023/07/28 07:46:23;;;;;;;2.37;1.90;;;18.70;99.90;;;;;;5095008;28;20207;-46
2023/07/28 07:48:49;;;;;;;4.20;2.00;;;18.70;99.90;;;;;;5094864;28;20194;-46
2023/07/28 07:51:16;;;;;;;2.57;1.83;;;18.70;99.90;;;;;;5094250;28;20196;-47
2023/07/28 07:53:42;;;;;;;2.73;1.80;;;18.70;99.90;;;;;;5095773;28;20187;-47
2023/07/28 07:56:08;;;;;;;3.40;2.30;;;18.80;99.90;;;;;;5094879;28;20236;-47
2023/07/28 07:58:34;;;;;;;3.73;1.90;;;18.80;99.90;;;;;;5095108;28;20175;-47
2023/07/28 08:01:00;;;;;;;4.67;1.80;;;18.90;99.90;;;;;;5094883;28;20179;-47
2023/07/28 08:03:26;;;;;;;2.67;2.00;;;19.00;99.90;;;;;;5094739;28;20180;-46
2023/07/28 08:05:52;;;;;;;2.00;1.90;;;19.00;99.90;;;;;;5094634;28;20203;-47
2023/07/28 08:08:19;;;;;;;5.73;2.10;;;19.10;99.90;;;;;;5093337;28;20197;-45
2023/07/28 08:10:48;;;;;;;3.00;1.73;;;19.10;99.90;;;;;;5095100;28;20175;-46
2023/07/28 08:13:14;;;;;;;3.83;1.93;;;19.20;99.90;;;;;;5094536;28;20179;-48
2023/07/28 08:15:42;;;;;;;4.17;2.40;;;19.20;99.90;;;;;;5076061;28;20686;-47
2023/07/28 08:18:08;;;;;;;2.47;2.17;;;19.30;99.90;;;;;;5076324;28;20252;-48
2023/07/28 08:20:33;;;;;;;2.40;2.20;;;19.40;99.90;;;;;;5094249;28;20183;-47
2023/07/28 08:22:59;;;;;;;6.07;2.23;;;19.50;99.90;;;;;;5094389;28;20662;-47
2023/07/28 08:25:24;;;;;;;4.30;2.13;;;19.50;99.90;;;;;;5094114;28;20214;-47
2023/07/28 08:27:50;;;;;;;6.63;2.40;;;19.70;99.90;;;;;;5094070;28;20240;-46
2023/07/28 08:30:16;;;;;;;2.60;2.30;;;19.80;99.90;;;;;;5094535;28;20305;-47
2023/07/28 08:32:42;;;;;;;5.10;2.50;;;19.90;99.90;;;;;;5094369;28;20175;-47
2023/07/28 08:35:09;;;;;;;3.37;2.63;;;20.00;99.90;;;;;;5094023;28;20694;-48
2023/07/28 08:37:35;;;;;;;6.27;2.93;;;20.10;99.90;;;;;;5076262;28;20555;-48
2023/07/28 08:40:01;;;;;;;7.87;2.40;;;20.20;99.90;;;;;;5094306;28;20182;-48
2023/07/28 08:42:29;;;;;;;2.97;2.67;;;20.40;99.90;;;;;;5093952;28;20175;-47
2023/07/28 08:44:55;;;;;;;4.63;2.30;;;20.60;99.90;;;;;;5094227;28;20179;-47
2023/07/28 08:47:21;;;;;;;2.90;2.30;;;20.70;99.90;;;;;;5093839;28;20281;-47
2023/07/28 08:49:47;;;;;;;3.70;2.23;;;20.80;99.90;;;;;;5075957;28;20197;-46
2023/07/28 08:52:16;;;;;;;5.13;2.37;;;20.80;99.90;;;;;;5094107;28;20195;-47
2023/07/28 08:54:42;;;;;;;2.33;2.13;;;21.00;99.90;;;;;;5094002;28;20256;-47
2023/07/28 08:57:10;;;;;;;2.70;1.60;;;21.20;99.90;;;;;;5093748;28;20202;-47
2023/07/28 08:59:36;;;;;;;5.77;1.40;;;21.30;99.90;;;;;;5093741;28;20203;-46
2023/07/28 09:02:02;;;;;;;4.93;1.50;;;21.40;99.90;;;;;;5092806;28;20171;-47
2023/07/28 09:04:28;;;;;;;1.50;1.40;;;21.40;99.90;;;;;;5093921;28;20236;-47
2023/07/28 09:06:53;;;;;;;1.83;1.40;;;21.40;99.90;;;;;;5093656;28;20195;-48
2023/07/28 09:09:22;;;;;;;1.80;1.60;;;21.50;99.90;;;;;;5075604;28;20194;-47
2023/07/28 09:11:52;;;;;;;2.07;1.40;;;21.50;99.90;;;;;;5093971;28;20340;-47
2023/07/28 09:14:19;;;;;;;2.13;1.40;;;21.60;99.90;;;;;;5093988;28;20250;-48
2023/07/28 09:16:45;;;;;;;2.20;1.63;;;21.60;99.90;;;;;;5093636;28;20195;-47
2023/07/28 09:19:11;;;;;;;3.90;1.50;;;21.70;99.90;;;;;;5093866;28;20183;-48
2023/07/28 09:21:43;;;;;;;2.33;1.33;;;21.70;99.90;;;;;;5093995;28;20247;-47
2023/07/28 09:24:12;;;;;;;1.20;1.10;;;21.70;99.90;;;;;;5093980;28;20199;-48
2023/07/28 09:26:38;;;;;;;0.80;0.80;;;21.60;99.90;;;;;;5093405;28;20199;-48
2023/07/28 09:29:15;;;;;;;1.43;0.70;;;21.60;99.90;;;;;;5093496;28;20213;-48
2023/07/28 09:31:41;;;;;;;1.40;1.13;;;21.50;99.90;;;;;;5093623;28;20557;-48
2023/07/28 09:34:13;;;;;;;1.73;0.90;;;21.50;99.90;;;;;;5093368;28;20214;-48
2023/07/28 09:36:39;;;;;;;1.67;1.00;;;21.40;99.90;;;;;;5109065;28;20252;-49
2023/07/28 09:39:09;;;;;;;1.73;0.97;;;21.40;99.90;;;;;;5093492;28;20589;-48
2023/07/28 09:41:37;;;;;;;1.80;1.10;;;21.40;99.90;;;;;;5093579;28;20610;-48
2023/07/28 09:44:03;;;;;;;1.33;0.80;;;21.30;99.90;;;;;;5093496;28;20237;-48
2023/07/28 09:46:30;;;;;;;4.40;0.90;;;21.30;99.90;;;;;;5093211;28;20620;-49
2023/07/28 09:48:58;;;;;;;2.33;0.90;;;21.40;99.90;;;;;;5093208;28;20198;-49
2023/07/28 09:51:30;;;;;;;0.90;0.90;;;21.50;99.90;;;;;;5093770;28;20206;-49
2023/07/28 09:54:11;;;;;;;2.20;0.90;;;21.70;99.90;;;;;;5093194;28;20181;-47
2023/07/28 09:56:38;;;;;;;1.07;0.97;;;21.80;99.90;;;;;;5093423;28;20198;-48
2023/07/28 09:59:11;;;;;;;4.93;1.07;;;21.80;99.90;;;;;;5108832;28;20258;-48
2023/07/28 10:01:40;;;;;;;1.20;1.10;;;21.80;99.90;;;;;;5075088;28;20176;-50
2023/07/28 10:04:06;;;;;;;1.27;1.17;;;21.90;99.90;;;;;;5093161;28;20194;-48
2023/07/28 10:06:33;;;;;;;3.20;1.60;;;22.00;99.90;;;;;;5109097;28;20202;-50
2023/07/28 10:08:59;;;;;;;1.63;1.53;;;21.90;99.90;;;;;;5075159;28;20185;-48
2023/07/28 10:11:26;;;;;;;1.50;1.40;;;21.90;99.90;;;;;;5093522;28;20178;-49
2023/07/28 10:13:54;;;;;;;1.30;1.20;;;22.00;99.90;;;;;;5095614;28;20174;-49
2023/07/28 10:16:30;;;;;;;2.70;1.30;;;22.00;99.90;;;;;;5097612;28;20348;-48
2023/07/28 10:18:58;;;;;;;1.73;1.40;;;22.00;99.90;;;;;;5097124;28;20574;-48
2023/07/28 10:21:28;;;;;;;2.20;1.50;;;22.00;99.90;;;;;;5096731;28;20178;-48
2023/07/28 10:23:56;;;;;;;2.10;1.40;;;22.00;99.90;;;;;;5096516;28;20662;-48
2023/07/28 10:26:34;;;;;;;4.00;1.43;;;22.10;99.90;;;;;;5096660;28;20285;-48
2023/07/28 10:29:16;;;;;;;2.10;1.47;;;22.10;99.90;;;;;;5096481;28;20658;-48
2023/07/28 10:31:52;;;;;;;1.50;1.40;;;22.10;99.90;;;;;;5096824;28;20160;-48
2023/07/28 10:34:18;;;;;;;2.10;1.40;;;22.20;99.90;;;;;;5096619;28;20217;-49
2023/07/28 10:36:48;;;;;;;1.67;1.10;;;22.20;99.90;;;;;;5096657;28;20277;-48
2023/07/28 10:39:17;;;;;;;1.53;1.40;;;22.30;99.90;;;;;;5096447;28;20175;-48
2023/07/28 10:42:02;;;;;;;1.67;1.23;;;22.30;99.90;;;;;;5112034;28;20266;-49
2023/07/28 10:44:28;;;;;;;1.30;1.20;;;22.50;99.90;;;;;;5096252;28;20277;-48
2023/07/28 10:46:56;;;;;;;2.70;1.03;;;22.50;99.90;;;;;;5096078;28;20253;-48
2023/07/28 10:49:22;;;;;;;2.07;0.87;;;22.50;99.90;;;;;;5096571;28;20190;-48
2023/07/28 10:51:48;;;;;;;0.73;0.70;;;22.50;99.90;;;;;;5096116;28;20632;-48
2023/07/28 10:54:16;;;;;;;2.30;0.80;;;22.60;99.90;;;;;;5077785;28;20219;-47
2023/07/28 10:56:42;;;;;;;0.80;0.80;;;22.60;99.90;;;;;;5096053;28;20248;-48
2023/07/28 10:59:08;;;;;;;0.70;0.70;;;22.70;99.90;;;;;;5096073;28;20195;-47
2023/07/28 11:01:38;;;;;;;1.20;0.83;;;22.90;99.90;;;;;;5095986;28;20190;-49
2023/07/28 11:04:16;;;;;;;1.00;0.80;;;23.00;99.90;;;;;;5096189;28;20179;-49
2023/07/28 11:06:47;;;;;;;7.20;0.80;;;23.10;99.90;;;;;;5078750;28;20248;-48
2023/07/28 11:09:16;;;;;;;2.13;0.80;;;23.20;99.90;;;;;;5095850;28;20240;-47
2023/07/28 11:11:42;;;;;;;0.80;0.80;;;23.30;99.90;;;;;;5095910;28;20186;-47
2023/07/28 11:14:09;;;;;;;1.23;0.80;;;23.30;99.90;;;;;;5095770;28;20621;-48
2023/07/28 11:16:41;;;;;;;2.40;0.97;;;23.40;99.90;;;;;;5095831;28;20701;-47
2023/07/28 11:19:10;;;;;;;1.33;0.90;;;23.50;99.90;;;;;;5077434;28;20258;-46
2023/07/28 11:21:37;;;;;;;3.03;1.03;;;23.50;99.90;;;;;;5077353;28;20187;-48
2023/07/28 11:24:04;;;;;;;1.33;0.97;;;23.60;99.90;;;;;;5095265;28;20191;-48
2023/07/28 11:26:30;;;;;;;4.33;1.30;;;23.30;99.90;;;;;;5094814;28;20199;-50
2023/07/28 11:28:56;;;;;;;7.07;1.20;;;23.20;99.90;;;;;;5095521;28;20217;-48
2023/07/28 11:31:25;;;;;;;2.20;0.97;;;22.90;99.90;;;;;;5095365;28;20673;-48
2023/07/28 11:33:53;;;;;;;2.23;1.30;;;22.70;99.90;;;;;;5076949;28;20221;-48
2023/07/28 11:36:37;;;;;;;3.23;1.10;;;22.60;99.90;;;;;;5076952;28;20211;-49
2023/07/28 11:39:05;;;;;;;2.50;1.10;;;22.50;99.90;;;;;;5095586;28;20163;-48
2023/07/28 11:41:32;;;;;;;1.30;0.67;;;22.40;99.90;;;;;;5095025;28;20262;-49
2023/07/28 11:43:59;;;;;;;2.50;0.90;;;22.40;99.90;;;;;;5095106;28;20191;-48
2023/07/28 11:46:42;;;;;;;1.33;1.00;;;22.30;99.90;;;;;;5093829;28;20226;-48
2023/07/28 11:49:16;;;;;;;1.60;1.13;;;22.30;99.90;;;;;;5095483;28;20208;-48
2023/07/28 11:51:44;;;;;;;1.20;0.83;;;22.20;99.90;;;;;;5095256;28;20238;-48
2023/07/28 11:54:15;;;;;;;0.80;0.80;;;22.30;99.90;;;;;;5076692;28;20214;-48
2023/07/28 11:56:42;;;;;;;0.80;0.80;;;22.40;99.90;;;;;;5094779;28;20589;-48
2023/07/28 11:59:08;;;;;;;1.73;0.87;;;22.60;99.90;;;;;;5094823;28;20190;-47
2023/07/28 12:01:33;;;;;;;0.83;0.80;;;22.70;99.90;;;;;;5095506;28;20645;-47
2023/07/28 12:04:00;;;;;;;3.40;1.03;;;22.80;99.90;;;;;;5076622;28;20189;-49
2023/07/28 12:06:26;;;;;;;0.80;0.60;;;22.80;99.90;;;;;;5094849;28;20207;-48
2023/07/28 12:08:52;;;;;;;1.60;0.70;;;22.70;99.90;;;;;;5095350;28;20197;-48
2023/07/28 12:11:18;;;;;;;0.60;0.60;;;22.70;99.90;;;;;;5092309;28;20199;-48
2023/07/28 12:13:50;;;;;;;2.20;0.80;;;22.70;99.90;;;;;;5091544;28;20656;-49
2023/07/28 12:16:39;;;;;;;0.63;0.60;;;22.70;99.90;;;;;;5095751;28;20218;-47
2023/07/28 12:19:04;;;;;;;2.27;0.50;;;22.70;99.90;;;;;;5096069;28;20206;-49
2023/07/28 12:21:31;;;;;;;0.60;0.60;;;22.90;99.90;;;;;;5076264;28;20282;-47
2023/07/28 12:23:56;;;;;;;0.47;0.47;;;23.00;99.90;;;;;;5091210;28;20194;-47
2023/07/28 12:26:22;;;;;;;1.63;0.70;;;23.20;99.90;;;;;;5095560;28;20221;-48
2023/07/28 12:28:48;;;;;;;0.60;0.60;;;23.30;99.90;;;;;;5097094;28;20218;-47
2023/07/28 12:31:13;;;;;;;1.67;0.50;;;23.30;99.90;;;;;;5094085;28;20198;-47
2023/07/28 12:33:39;;;;;;;0.47;0.47;;;23.30;99.90;;;;;;5093581;28;20202;-47
2023/07/28 12:36:06;;;;;;;1.60;0.50;;;23.20;99.90;;;;;;5095210;28;20309;-47
2023/07/28 12:38:31;;;;;;;0.93;0.50;;;23.10;99.90;;;;;;5094450;28;20187;-48
2023/07/28 12:40:57;;;;;;;1.00;0.40;;;23.10;99.90;;;;;;5097212;28;20703;-48
2023/07/28 12:43:24;;;;;;;0.57;0.50;;;23.20;99.90;;;;;;5094035;28;20179;-48
2023/07/28 12:45:49;;;;;;;1.67;0.90;;;23.30;99.90;;;;;;5073509;28;20694;-49